Suva, Fiji

7:39 PM FJT on May 30, 2015 (GMT +1200)
Nausori International | | Change Station
CLOSE
Current Station
Airport
Location: Nausori,
Elevation: 16 ft
Nearby Weather Stations

Elev 16 ft 18.04 °S, 178.56 °E | Updated 39 minutes ago

Light Rain
Light Rain
73 °F
Feels Like 73 °F
N
0
Wind Variable Wind from North

Today
High -- | Low -- °F
--% Chance of Precip.
Yesterday
High -- | Low -- °F
Precip. -- in
6:29 AM 5:37 PM
Waxing Gibbous, 89% visible
Pressure 29.95 in
Visibility 9.3 miles
Clouds Mostly Cloudy 2000 ft
Mostly Cloudy 4500 ft
Mostly Cloudy 11000 ft
Dew Point 72 °F
Humidity 94%
Rainfall 0.00 in
Snow Depth Not available.
UV 0 out of 12
Pollen Not available.
Air Quality Not available.
Flu Activity Not available.
METAR NFNA 300700Z 00000KT 15KM -RA BKN020 BKN045 BKN110 23/22 Q1014 RMK RR 0.3

More Conditions Fewer Conditions

Pressure 29.95 in
Visibility 9.3 miles
Clouds Mostly Cloudy 2000 ft
Mostly Cloudy 4500 ft
Mostly Cloudy 11000 ft
Dew Point 72 °F
Humidity 94%
Rainfall 0.00 in
Snow Depth Not available.
UV 0 out of 12
Pollen Not available.
Air Quality Not available.
Flu Activity Not available.
METAR NFNA 300700Z 00000KT 15KM -RA BKN020 BKN045 BKN110 23/22 Q1014 RMK RR 0.3

More Conditions Fewer Conditions

10-Day Weather Forecast

Almanac

Astronomy

May. 30, 2015 Rise Set
Actual Time
Civil Twilight
Nautical Twilight
Astronomical Twilight
Moon
Length of Visible Light
Length of Day
Tomorrow will be .
, % of the Moon is Illuminated

Today's Extremes

Country Highs Country Lows

Community

WunderPhotos

Upload Photos

1,825,470 photos uploaded!

WunderBlogs® & News

Nearby

Air Quality

  Air Quality AQ Index Pollutant
Not available.

Snow Depth

Station Depth Elevation

Earthquake Activity

City Distance Mag. Time & Date
Minimum magnitude displayed is 2.5.

Coastal Water Temperatures

Place Temperature

Stations

Nearby Weather Stations

Station Location Temp. Windchill Dew Point Humidity Wind Precip. Elev Updated Type